Time;durP1;ratioP1;P1;durP2;ratioP2;P2;SDS_P1;SDS_P2;PMS_P1;PMS_P2;Temp;Humidity;BMP_temperature;BMP_pressure;BME280_temperature;BME280_humidity;BME280_pressure;Samples;Min_cycle;Max_cycle;Signal;HPM_P1;HPM_P2
2023/03/30 00:02:11;;;;;;;5.07;2.70;;;16.50;99.90;;;;;;5096625;28;20194;-77
2023/03/30 00:04:41;;;;;;;5.53;2.63;;;16.50;99.90;;;;;;5096229;28;20255;-76
2023/03/30 00:07:07;;;;;;;6.73;2.87;;;16.40;99.90;;;;;;5096078;28;20198;-76
2023/03/30 00:09:32;;;;;;;4.53;2.83;;;16.40;99.90;;;;;;5096408;28;20623;-76
2023/03/30 00:12:04;;;;;;;7.17;2.80;;;16.30;99.90;;;;;;5096179;28;20222;-76
2023/03/30 00:14:30;;;;;;;3.70;2.57;;;16.30;99.90;;;;;;5096320;28;20204;-76
2023/03/30 00:16:55;;;;;;;7.97;2.73;;;16.30;99.90;;;;;;5096123;28;20216;-76
2023/03/30 00:19:21;;;;;;;2.90;2.20;;;16.30;99.90;;;;;;5095880;28;20211;-76
2023/03/30 00:21:48;;;;;;;6.53;2.40;;;16.30;99.90;;;;;;5095708;28;20188;-75
2023/03/30 00:24:14;;;;;;;6.17;2.73;;;16.30;99.90;;;;;;5095929;28;20166;-76
2023/03/30 00:26:40;;;;;;;4.80;2.10;;;16.20;99.90;;;;;;5095969;28;20542;-77
2023/03/30 00:29:06;;;;;;;8.17;2.17;;;16.20;99.90;;;;;;5095931;28;20178;-78
2023/03/30 00:31:31;;;;;;;6.40;2.30;;;16.30;99.90;;;;;;5095749;28;20892;-77
2023/03/30 00:33:57;;;;;;;4.50;2.23;;;16.20;99.90;;;;;;5095774;28;20179;-77
2023/03/30 00:36:22;;;;;;;3.27;2.30;;;16.30;99.90;;;;;;5095364;28;20226;-76
2023/03/30 00:38:48;;;;;;;6.13;1.93;;;16.20;99.90;;;;;;5095672;28;20164;-76
2023/03/30 00:41:17;;;;;;;3.23;2.00;;;16.20;99.90;;;;;;5095705;28;20263;-75
2023/03/30 00:43:57;;;;;;;5.73;2.10;;;16.20;99.90;;;;;;5095374;28;20172;-76
2023/03/30 00:46:23;;;;;;;5.60;1.97;;;16.20;99.90;;;;;;5095452;28;20179;-76
2023/03/30 00:48:52;;;;;;;3.93;2.10;;;16.20;99.90;;;;;;5095549;28;20255;-76
2023/03/30 00:51:18;;;;;;;4.80;1.83;;;16.20;99.90;;;;;;5094730;28;20176;-78
2023/03/30 00:53:49;;;;;;;4.77;1.80;;;16.10;99.90;;;;;;5095199;28;20196;-76
2023/03/30 00:56:18;;;;;;;2.10;1.73;;;16.20;99.90;;;;;;5095072;28;20260;-76
2023/03/30 00:58:45;;;;;;;7.43;2.10;;;16.10;99.90;;;;;;5094998;28;20164;-76
2023/03/30 01:01:14;;;;;;;1.70;1.60;;;16.10;99.90;;;;;;5094882;28;20698;-76
2023/03/30 01:03:46;;;;;;;4.40;2.17;;;16.10;99.90;;;;;;5094668;28;20741;-76
2023/03/30 01:06:16;;;;;;;3.80;2.10;;;16.00;99.90;;;;;;5094778;28;20653;-76
2023/03/30 01:08:43;;;;;;;1.77;1.67;;;15.90;99.90;;;;;;5095056;28;20176;-76
2023/03/30 01:11:08;;;;;;;2.50;1.70;;;15.90;99.90;;;;;;5094803;28;20635;-76
2023/03/30 01:13:41;;;;;;;4.23;2.00;;;16.00;99.90;;;;;;5094571;28;20229;-76
2023/03/30 01:16:27;;;;;;;4.03;1.80;;;15.90;99.90;;;;;;5094799;28;20218;-76
2023/03/30 01:19:17;;;;;;;3.47;1.97;;;15.90;99.90;;;;;;5094331;28;20277;-76
2023/03/30 01:22:07;;;;;;;2.40;1.83;;;15.80;99.90;;;;;;5076606;28;20176;-76
2023/03/30 01:24:54;;;;;;;3.50;1.90;;;15.70;99.90;;;;;;5094744;28;20630;-76
2023/03/30 01:27:44;;;;;;;5.90;1.70;;;15.70;99.90;;;;;;5094724;28;20217;-76
2023/03/30 01:30:22;;;;;;;8.07;2.00;;;15.60;99.90;;;;;;5094684;28;20213;-75
2023/03/30 01:32:54;;;;;;;3.50;1.90;;;15.60;99.90;;;;;;5094176;28;20172;-75
2023/03/30 01:35:20;;;;;;;3.57;1.60;;;15.60;99.90;;;;;;5094444;28;20251;-75
2023/03/30 01:38:04;;;;;;;3.77;1.87;;;15.50;99.90;;;;;;5094454;28;20728;-76
2023/03/30 01:40:46;;;;;;;4.37;1.90;;;15.50;99.90;;;;;;5094508;28;20168;-76
2023/03/30 01:43:33;;;;;;;5.53;1.97;;;15.50;99.90;;;;;;5094298;28;20172;-76
2023/03/30 01:46:07;;;;;;;3.20;2.07;;;15.50;99.90;;;;;;5094479;28;20176;-76
2023/03/30 01:48:48;;;;;;;4.17;2.00;;;15.50;99.90;;;;;;5094275;28;20174;-76
2023/03/30 01:51:45;;;;;;;5.80;1.80;;;15.40;99.90;;;;;;5093984;28;20210;-75
2023/03/30 01:54:23;;;;;;;3.83;1.87;;;15.40;99.90;;;;;;5089812;28;20559;-76
2023/03/30 01:57:12;;;;;;;5.00;2.00;;;15.30;99.90;;;;;;5094127;28;20257;-76
2023/03/30 01:59:48;;;;;;;3.33;1.70;;;15.40;99.90;;;;;;5093823;28;20168;-76
2023/03/30 02:02:17;;;;;;;4.93;2.00;;;15.40;99.90;;;;;;5092891;28;20159;-76
2023/03/30 02:04:44;;;;;;;4.50;1.97;;;15.40;99.90;;;;;;5093949;28;20168;-76
2023/03/30 02:07:16;;;;;;;2.47;1.83;;;15.40;99.90;;;;;;5094098;28;20171;-75
2023/03/30 02:09:44;;;;;;;4.93;1.67;;;15.30;99.90;;;;;;5093735;28;20584;-76
2023/03/30 02:12:11;;;;;;;5.00;2.00;;;15.30;99.90;;;;;;5093804;28;20306;-75
2023/03/30 02:14:39;;;;;;;2.50;1.70;;;15.30;99.90;;;;;;5093630;28;20247;-75
2023/03/30 02:17:17;;;;;;;4.37;2.10;;;15.30;99.90;;;;;;5093629;28;20195;-75
2023/03/30 02:19:47;;;;;;;5.10;2.63;;;15.20;99.90;;;;;;5093548;28;20261;-75
2023/03/30 02:22:20;;;;;;;6.20;2.00;;;15.20;99.90;;;;;;5093582;28;20323;-75
2023/03/30 02:24:50;;;;;;;2.87;1.90;;;15.30;99.90;;;;;;5093598;28;20178;-75
2023/03/30 02:27:16;;;;;;;2.70;2.00;;;15.30;99.90;;;;;;5093655;28;20638;-76
2023/03/30 02:29:43;;;;;;;3.73;1.93;;;15.40;99.90;;;;;;5093652;28;20171;-75
2023/03/30 02:32:19;;;;;;;5.50;2.40;;;15.40;99.90;;;;;;5093303;28;20168;-76
2023/03/30 02:35:11;;;;;;;6.93;2.30;;;15.50;99.90;;;;;;5093543;28;20258;-76
2023/03/30 02:38:04;;;;;;;2.70;1.70;;;15.50;99.90;;;;;;5093571;28;20216;-76
2023/03/30 02:41:00;;;;;;;4.43;2.03;;;15.40;99.90;;;;;;5093377;28;20172;-76
2023/03/30 02:43:59;;;;;;;3.87;2.00;;;15.50;99.90;;;;;;5093098;28;20262;-75
2023/03/30 02:46:40;;;;;;;3.83;2.00;;;15.50;99.90;;;;;;5061841;28;20179;-75
2023/03/30 02:49:14;;;;;;;2.07;1.80;;;15.50;99.90;;;;;;5093376;28;20164;-76
2023/03/30 02:51:51;;;;;;;3.10;2.20;;;15.50;99.90;;;;;;5093344;28;20172;-75
2023/03/30 02:54:47;;;;;;;5.00;2.17;;;15.60;99.90;;;;;;5093329;28;20191;-76
2023/03/30 02:57:42;;;;;;;6.57;2.20;;;15.60;99.90;;;;;;5093158;28;20290;-76
2023/03/30 03:00:16;;;;;;;2.30;1.70;;;15.60;99.90;;;;;;5092605;28;20250;-77
2023/03/30 03:02:51;;;;;;;4.50;1.90;;;15.60;99.90;;;;;;5093123;28;20168;-75
2023/03/30 03:05:20;;;;;;;4.43;2.20;;;15.50;99.90;;;;;;5093155;28;20681;-76
2023/03/30 03:07:49;;;;;;;5.07;2.10;;;15.50;99.90;;;;;;5093244;28;20175;-76
2023/03/30 03:10:15;;;;;;;4.00;1.63;;;15.40;99.90;;;;;;5092988;28;20168;-77
2023/03/30 03:12:43;;;;;;;3.23;1.70;;;15.40;99.90;;;;;;5093024;28;20226;-77
2023/03/30 03:15:10;;;;;;;2.53;1.60;;;15.40;99.90;;;;;;5096790;28;20639;-75
2023/03/30 03:17:35;;;;;;;3.13;1.93;;;15.40;99.90;;;;;;5096700;28;20211;-76
2023/03/30 03:20:02;;;;;;;4.00;1.93;;;15.40;99.90;;;;;;5097086;28;20628;-76
2023/03/30 03:22:28;;;;;;;4.33;2.00;;;15.40;99.90;;;;;;5095875;28;20183;-76
2023/03/30 03:24:54;;;;;;;6.00;2.20;;;15.50;99.90;;;;;;5096883;28;20658;-75
2023/03/30 03:27:22;;;;;;;2.67;1.77;;;15.40;99.90;;;;;;5097039;28;20542;-75
2023/03/30 03:29:51;;;;;;;4.03;1.83;;;15.40;99.90;;;;;;5096645;28;20172;-76
2023/03/30 03:32:16;;;;;;;2.53;1.60;;;15.40;99.90;;;;;;5096652;28;20198;-75
2023/03/30 03:34:44;;;;;;;8.00;2.20;;;15.40;99.90;;;;;;5096645;28;20203;-76
2023/03/30 03:37:11;;;;;;;2.73;1.53;;;15.40;99.90;;;;;;5096409;28;20195;-76
2023/03/30 03:39:39;;;;;;;4.30;1.80;;;15.30;99.90;;;;;;5096268;28;20164;-76
2023/03/30 03:42:06;;;;;;;5.13;1.87;;;15.20;99.90;;;;;;5096445;28;20179;-75
2023/03/30 03:44:32;;;;;;;3.47;1.70;;;15.20;99.90;;;;;;5095406;28;20208;-75
2023/03/30 03:46:57;;;;;;;4.80;1.70;;;15.20;99.90;;;;;;5096454;28;20168;-75
2023/03/30 03:49:23;;;;;;;3.23;1.70;;;15.30;99.90;;;;;;5096217;28;20258;-76
2023/03/30 03:51:49;;;;;;;3.20;1.90;;;15.30;99.90;;;;;;5096170;28;20168;-76
2023/03/30 03:54:15;;;;;;;2.70;1.53;;;15.30;99.90;;;;;;5095614;28;20643;-75
2023/03/30 03:56:40;;;;;;;3.70;1.97;;;15.30;99.90;;;;;;5096005;28;20215;-77
2023/03/30 03:59:06;;;;;;;5.43;1.90;;;15.30;99.90;;;;;;5095987;28;20228;-75
2023/03/30 04:01:35;;;;;;;5.53;2.03;;;15.30;99.90;;;;;;5096039;28;20171;-75
2023/03/30 04:04:00;;;;;;;2.43;1.70;;;15.30;99.90;;;;;;5096086;28;20207;-76
2023/03/30 04:06:26;;;;;;;4.07;1.93;;;15.40;99.90;;;;;;5095753;28;20172;-75
2023/03/30 04:08:52;;;;;;;2.73;2.17;;;15.30;99.90;;;;;;5095886;28;20233;-76
2023/03/30 04:11:17;;;;;;;5.50;2.00;;;15.30;99.90;;;;;;5095867;28;20591;-77
2023/03/30 04:13:43;;;;;;;3.10;2.07;;;15.30;99.90;;;;;;5095286;28;20650;-76
2023/03/30 04:16:09;;;;;;;3.13;1.73;;;15.20;99.90;;;;;;5095596;28;20290;-76
2023/03/30 04:18:35;;;;;;;3.83;2.03;;;15.20;99.90;;;;;;5095650;28;20220;-76
2023/03/30 04:21:04;;;;;;;2.10;1.63;;;15.20;99.90;;;;;;5096090;28;20616;-77
2023/03/30 04:23:32;;;;;;;3.10;1.80;;;15.20;99.90;;;;;;5095395;28;20167;-76
2023/03/30 04:26:03;;;;;;;4.27;1.87;;;15.20;99.90;;;;;;5094453;28;20168;-76
2023/03/30 04:28:30;;;;;;;3.67;1.60;;;15.20;99.90;;;;;;5095312;28;20168;-76
2023/03/30 04:31:03;;;;;;;4.77;2.30;;;15.20;99.90;;;;;;5095043;28;20176;-75
2023/03/30 04:33:33;;;;;;;4.90;1.83;;;15.20;99.90;;;;;;5095135;28;20191;-75
2023/03/30 04:36:00;;;;;;;3.40;2.10;;;15.20;99.90;;;;;;5095229;28;20210;-76
2023/03/30 04:38:26;;;;;;;3.50;2.07;;;15.10;99.90;;;;;;5094699;28;20229;-75
2023/03/30 04:40:53;;;;;;;4.67;1.90;;;15.00;99.90;;;;;;5095208;28;20541;-75
2023/03/30 04:43:20;;;;;;;4.73;1.90;;;14.90;99.90;;;;;;5094681;28;20212;-76
2023/03/30 04:45:53;;;;;;;4.23;2.30;;;14.90;99.90;;;;;;5094927;28;20229;-76
2023/03/30 04:48:20;;;;;;;6.53;2.00;;;14.80;99.90;;;;;;5094755;28;20232;-76
2023/03/30 04:50:50;;;;;;;5.17;2.10;;;14.70;99.90;;;;;;5094667;28;20179;-75
2023/03/30 04:53:17;;;;;;;4.30;2.30;;;14.60;99.90;;;;;;5094636;28;20240;-75
2023/03/30 04:55:47;;;;;;;6.93;2.47;;;14.50;99.90;;;;;;5094155;28;20275;-76
2023/03/30 04:58:13;;;;;;;4.83;2.00;;;14.50;99.90;;;;;;5093776;28;20206;-76
2023/03/30 05:00:40;;;;;;;4.30;2.50;;;14.50;99.90;;;;;;5075871;28;20210;-76
2023/03/30 05:03:06;;;;;;;2.20;1.70;;;14.40;99.90;;;;;;5095002;28;20183;-75
2023/03/30 05:05:32;;;;;;;3.20;1.90;;;14.40;99.90;;;;;;5094433;28;20164;-77
2023/03/30 05:07:59;;;;;;;4.80;2.00;;;14.30;99.90;;;;;;5094118;28;20194;-76
2023/03/30 05:10:25;;;;;;;4.87;1.90;;;14.20;99.90;;;;;;5093909;28;20164;-75
2023/03/30 05:12:54;;;;;;;3.47;1.90;;;14.20;99.90;;;;;;5093840;28;20175;-75
2023/03/30 05:15:20;;;;;;;4.43;2.00;;;14.20;99.90;;;;;;5093845;28;20172;-76
2023/03/30 05:17:49;;;;;;;3.43;2.00;;;14.10;99.90;;;;;;5092872;28;20510;-76
2023/03/30 05:20:14;;;;;;;4.87;2.03;;;14.00;99.90;;;;;;5093648;28;20618;-75
2023/03/30 05:22:40;;;;;;;5.50;2.27;;;14.00;99.90;;;;;;5094066;28;20176;-76
2023/03/30 05:25:06;;;;;;;4.43;2.00;;;14.00;99.90;;;;;;5093485;28;20176;-76
2023/03/30 05:27:32;;;;;;;4.63;2.23;;;13.90;99.90;;;;;;5093904;28;20255;-76
2023/03/30 05:29:58;;;;;;;6.83;2.27;;;14.00;99.90;;;;;;5093295;28;20210;-76
2023/03/30 05:32:27;;;;;;;2.40;1.70;;;14.00;99.90;;;;;;5094153;28;20290;-76
2023/03/30 05:34:52;;;;;;;6.57;1.93;;;13.90;99.90;;;;;;5093588;28;20253;-75
2023/03/30 05:37:18;;;;;;;5.63;2.10;;;14.00;99.90;;;;;;5093250;28;20644;-76
2023/03/30 05:39:44;;;;;;;7.10;2.43;;;14.00;99.90;;;;;;5092952;28;20171;-75
2023/03/30 05:42:10;;;;;;;6.53;2.40;;;14.00;99.90;;;;;;5093061;28;20615;-77
2023/03/30 05:44:39;;;;;;;6.90;2.37;;;13.90;99.90;;;;;;5093110;28;20203;-76
2023/03/30 05:47:05;;;;;;;10.47;2.40;;;13.90;99.90;;;;;;5092943;28;20179;-76
2023/03/30 05:49:30;;;;;;;7.07;2.23;;;13.90;99.90;;;;;;5093773;28;20168;-76
2023/03/30 05:51:56;;;;;;;7.47;2.30;;;13.90;99.90;;;;;;5093166;28;20630;-76
2023/03/30 05:54:22;;;;;;;5.93;2.50;;;13.90;99.90;;;;;;5092920;28;20187;-76
2023/03/30 05:56:47;;;;;;;10.03;2.50;;;13.80;99.90;;;;;;5092425;28;20263;-76
2023/03/30 05:59:16;;;;;;;6.70;2.23;;;13.80;99.90;;;;;;5091944;28;20168;-76
2023/03/30 06:01:41;;;;;;;4.70;2.47;;;13.80;99.90;;;;;;5092678;28;20310;-76
2023/03/30 06:04:07;;;;;;;8.03;2.63;;;13.90;99.90;;;;;;5092848;28;20203;-76
2023/03/30 06:06:33;;;;;;;6.40;2.07;;;14.10;99.90;;;;;;5091954;28;20642;-77
2023/03/30 06:08:58;;;;;;;9.90;2.80;;;14.20;99.90;;;;;;5092774;28;20172;-78
2023/03/30 06:11:24;;;;;;;5.17;2.30;;;15.00;99.90;;;;;;5092352;28;20179;-77
2023/03/30 06:13:50;;;;;;;7.93;2.33;;;15.80;99.90;;;;;;5092339;28;20182;-77
2023/03/30 06:16:15;;;;;;;3.80;2.07;;;16.50;99.90;;;;;;5092702;28;20556;-78
2023/03/30 06:18:41;;;;;;;6.53;2.60;;;17.00;99.90;;;;;;5091974;28;20238;-76
2023/03/30 06:21:26;;;;;;;9.90;2.45;;;17.00;99.90;;;;;;5092512;28;20619;-78
2023/03/30 06:23:51;;;;;;;8.03;2.53;;;16.60;99.90;;;;;;5091623;28;20684;-77
2023/03/30 06:26:17;;;;;;;8.50;2.50;;;16.10;99.90;;;;;;5091835;28;20192;-77
2023/03/30 06:28:43;;;;;;;6.63;2.40;;;15.70;99.90;;;;;;5092160;28;20211;-76
2023/03/30 06:31:10;;;;;;;8.10;2.67;;;15.40;99.90;;;;;;5092656;28;20179;-77
2023/03/30 06:33:36;;;;;;;7.03;2.50;;;15.20;99.90;;;;;;5092040;28;20176;-76
2023/03/30 06:36:02;;;;;;;6.97;2.40;;;15.00;99.90;;;;;;5091395;28;20207;-77
2023/03/30 06:38:28;;;;;;;6.83;2.80;;;14.80;99.90;;;;;;5092084;28;20229;-76
2023/03/30 06:40:54;;;;;;;8.27;2.57;;;14.80;99.90;;;;;;5092095;28;20175;-77
2023/03/30 06:43:24;;;;;;;8.30;2.63;;;14.60;99.90;;;;;;5091867;28;20168;-77
2023/03/30 06:45:54;;;;;;;8.97;2.50;;;14.50;99.90;;;;;;5092104;28;20175;-78
2023/03/30 06:48:22;;;;;;;11.67;3.10;;;14.70;99.90;;;;;;5091773;28;20171;-77
2023/03/30 06:50:52;;;;;;;7.17;2.73;;;15.40;99.90;;;;;;5092490;28;20236;-77
2023/03/30 06:53:19;;;;;;;5.57;2.90;;;16.00;99.90;;;;;;5091281;28;20199;-77
2023/03/30 06:56:05;;;;;;;7.30;2.73;;;16.90;99.90;;;;;;5092314;28;20207;-78
2023/03/30 06:58:32;;;;;;;12.13;2.88;;;17.50;99.90;;;;;;5092140;28;20236;-78
2023/03/30 07:00:57;;;;;;;9.05;2.60;;;18.20;99.90;;;;;;5091985;28;20164;-80
2023/03/30 07:03:23;;;;;;;5.85;2.50;;;18.90;99.90;;;;;;5092235;28;20175;-79
2023/03/30 07:05:50;;;;;;;9.05;3.10;;;19.70;99.90;;;;;;5091483;28;20307;-80
2023/03/30 07:08:17;;;;;;;7.22;2.47;;;20.60;99.90;;;;;;5076716;28;20181;-80
2023/03/30 07:10:46;;;;;;;11.13;2.78;;;21.00;99.90;;;;;;5077772;28;20177;-81
2023/03/30 07:13:12;;;;;;;6.32;2.35;;;21.30;99.30;;;;;;5086218;28;20168;-83
2023/03/30 07:15:38;;;;;;;6.72;2.90;;;22.10;97.90;;;;;;5074016;28;20636;-79
2023/03/30 07:18:07;;;;;;;6.25;2.63;;;22.80;96.40;;;;;;5073232;28;20303;-80
2023/03/30 07:20:32;;;;;;;6.90;2.78;;;23.40;95.00;;;;;;5090509;28;20176;-80
2023/03/30 07:22:58;;;;;;;7.97;2.90;;;23.30;94.40;;;;;;5076309;28;20334;-76
2023/03/30 07:25:23;;;;;;;9.23;2.97;;;22.70;95.60;;;;;;5075092;28;20177;-80
2023/03/30 07:27:49;;;;;;;10.27;2.80;;;23.40;94.70;;;;;;5070634;28;20505;-76
2023/03/30 07:30:15;;;;;;;7.40;2.70;;;23.70;93.30;;;;;;5059433;28;20545;-76
2023/03/30 07:32:40;;;;;;;8.60;2.92;;;23.90;93.70;;;;;;5078419;28;20184;-80
2023/03/30 07:35:07;;;;;;;14.20;3.10;;;23.50;93.30;;;;;;5054623;28;20177;-79
2023/03/30 07:37:38;;;;;;;8.45;3.00;;;22.10;94.80;;;;;;5085441;28;20713;-77
2023/03/30 07:40:09;;;;;;;9.55;3.58;;;20.60;97.70;;;;;;5080489;28;20228;-78
2023/03/30 07:42:35;;;;;;;10.15;3.47;;;19.70;99.80;;;;;;5076459;28;20176;-78
2023/03/30 07:45:05;;;;;;;13.07;3.20;;;19.00;99.90;;;;;;5087595;28;20171;-76
2023/03/30 07:47:31;;;;;;;10.18;3.30;;;18.30;99.90;;;;;;5071246;28;20250;-74
2023/03/30 07:49:56;;;;;;;7.43;3.05;;;18.20;99.90;;;;;;5066040;28;20180;-77
2023/03/30 07:52:26;;;;;;;11.85;3.10;;;17.60;99.90;;;;;;5071993;28;20227;-75
2023/03/30 07:54:53;;;;;;;11.43;3.20;;;16.90;1.00;;;;;;5085877;28;20645;-76
2023/03/30 07:57:20;;;;;;;12.93;3.30;;;16.20;1.00;;;;;;5057915;28;20200;-76
2023/03/30 07:59:45;;;;;;;14.00;3.67;;;15.90;1.00;;;;;;5063710;28;20584;-76
2023/03/30 08:02:13;;;;;;;10.80;3.20;;;15.60;1.00;;;;;;5084278;28;20186;-74
2023/03/30 08:04:39;;;;;;;10.50;3.17;;;15.50;1.00;;;;;;5079718;28;20536;-74
2023/03/30 08:07:04;;;;;;;12.33;3.10;;;15.20;1.00;;;;;;5076274;28;20176;-73
2023/03/30 08:09:33;;;;;;;13.53;3.47;;;14.80;16.70;;;;;;5080484;28;20183;-74
2023/03/30 08:11:58;;;;;;;12.43;3.33;;;14.70;25.10;;;;;;5088326;28;20182;-73
2023/03/30 08:14:28;;;;;;;8.27;3.20;;;14.70;22.80;;;;;;5090400;28;20172;-70
2023/03/30 08:16:54;;;;;;;10.60;3.80;;;14.70;23.80;;;;;;5089991;28;20203;-72
2023/03/30 08:19:22;;;;;;;11.00;3.50;;;14.70;27.40;;;;;;5086694;28;20275;-72
2023/03/30 08:21:48;;;;;;;8.37;3.17;;;14.50;28.10;;;;;;5091439;28;20176;-73
2023/03/30 08:24:13;;;;;;;8.93;3.40;;;14.50;29.40;;;;;;5091062;28;20229;-73
2023/03/30 08:26:39;;;;;;;9.30;2.80;;;14.50;34.00;;;;;;5090362;28;20266;-73
2023/03/30 08:29:05;;;;;;;11.17;3.03;;;14.50;23.80;;;;;;5088408;28;20176;-74
2023/03/30 08:31:31;;;;;;;7.73;2.40;;;14.60;14.70;;;;;;5059404;28;20589;-72
2023/03/30 08:33:57;;;;;;;7.07;2.63;;;14.80;2.80;;;;;;5088501;28;20251;-72
2023/03/30 08:36:23;;;;;;;10.80;2.70;;;15.30;1.00;;;;;;5077581;28;20211;-72
2023/03/30 08:38:49;;;;;;;5.37;2.27;;;16.00;1.00;;;;;;5086097;28;20756;-71
2023/03/30 08:41:28;;;;;;;7.57;2.25;;;17.50;1.00;;;;;;5078205;28;20179;-73
2023/03/30 08:44:10;;;;;;;7.05;1.95;;;19.00;1.00;;;;;;5070848;28;20160;-72
2023/03/30 08:46:37;;;;;;;9.10;2.30;;;20.20;99.90;;;;;;5080141;28;20168;-72
2023/03/30 08:49:10;;;;;;;5.75;2.67;;;21.40;98.60;;;;;;5086999;28;20255;-75
2023/03/30 08:51:38;;;;;;;5.28;2.47;;;22.80;96.40;;;;;;5078911;28;20175;-82
2023/03/30 08:54:07;;;;;;;6.57;2.70;;;23.20;94.80;;;;;;5074977;28;20679;-78
2023/03/30 08:57:00;;;;;;;6.32;2.40;;;23.40;94.10;;;;;;5086109;28;20195;-76
2023/03/30 08:59:35;;;;;;;18.42;15.25;;;23.90;92.60;;;;;;5067036;28;20237;-77
2023/03/30 09:02:20;;;;;;;9.48;5.13;;;23.70;93.60;;;;;;5083793;28;20299;-73
2023/03/30 09:04:56;;;;;;;6.05;3.10;;;24.80;91.70;;;;;;5085703;28;20631;-74
2023/03/30 09:07:31;;;;;;;10.60;2.80;;;24.40;91.20;;;;;;5084667;28;20171;-73
2023/03/30 09:10:10;;;;;;;8.40;3.05;;;22.90;93.30;;;;;;5073617;28;20195;-73
2023/03/30 09:12:49;;;;;;;7.18;3.17;;;21.70;95.00;;;;;;5084493;28;20233;-74
2023/03/30 09:15:28;;;;;;;14.27;3.55;;;20.50;1.00;;;;;;5077468;28;20265;-75
2023/03/30 09:18:06;;;;;;;10.93;3.47;;;19.50;1.00;;;;;;5069742;28;20662;-75
2023/03/30 09:20:35;;;;;;;10.02;3.30;;;18.30;1.00;;;;;;5071377;28;20221;-77
2023/03/30 09:23:06;;;;;;;10.38;3.30;;;17.60;1.00;;;;;;5077799;28;20168;-74
2023/03/30 09:26:12;;;;;;;11.43;3.72;;;17.20;1.00;;;;;;5086248;28;20721;-80
2023/03/30 09:28:44;;;;;;;9.82;3.75;;;16.50;1.00;;;;;;5046501;28;20643;-77
2023/03/30 09:31:21;;;;;;;12.53;3.63;;;15.90;9.00;;;;;;5076135;28;20163;-78
2023/03/30 09:33:50;;;;;;;7.77;3.63;;;15.40;32.40;;;;;;5066797;28;20195;-76
2023/03/30 09:36:20;;;;;;;9.40;3.50;;;14.90;59.20;;;;;;5074574;28;20215;-77
2023/03/30 09:38:46;;;;;;;12.30;3.57;;;14.80;70.40;;;;;;5086580;28;20172;-80
2023/03/30 09:41:46;;;;;;;10.40;4.10;;;14.70;76.10;;;;;;5061416;28;20202;-77
2023/03/30 09:44:35;;;;;;;13.77;3.80;;;14.90;78.90;;;;;;5073385;28;20173;-78
2023/03/30 09:47:08;;;;;;;10.10;3.30;;;14.60;72.50;;;;;;5078322;28;20165;-78
2023/03/30 09:49:40;;;;;;;12.90;3.63;;;14.50;69.90;;;;;;5089208;28;20160;-79
2023/03/30 09:52:17;;;;;;;10.80;3.70;;;14.70;60.90;;;;;;5081828;28;20203;-76
2023/03/30 09:54:43;;;;;;;12.90;4.07;;;15.20;59.20;;;;;;5077993;28;20216;-74
2023/03/30 09:57:27;;;;;;;10.63;3.60;;;15.20;39.60;;;;;;5094003;28;20226;-78
2023/03/30 09:59:54;;;;;;;10.57;3.97;;;15.10;34.30;;;;;;5088808;28;20187;-80
2023/03/30 10:02:26;;;;;;;13.67;4.77;;;15.10;44.50;;;;;;5052860;28;20215;-73
2023/03/30 10:04:51;;;;;;;9.43;3.50;;;15.10;55.40;;;;;;5072777;28;20587;-74
2023/03/30 10:07:39;;;;;;;10.20;4.60;;;14.90;51.60;;;;;;5071920;28;20164;-78
2023/03/30 10:10:26;;;;;;;9.20;3.50;;;14.60;81.40;;;;;;5072438;28;20267;-74
2023/03/30 10:13:20;;;;;;;8.83;3.20;;;14.20;93.40;;;;;;5074619;28;20514;-75
2023/03/30 10:15:51;;;;;;;10.40;3.40;;;14.20;97.70;;;;;;5060951;28;20185;-72
2023/03/30 10:18:17;;;;;;;49.57;36.30;;;14.10;99.90;;;;;;5072265;28;20269;-73
2023/03/30 10:20:50;;;;;;;23.50;17.50;;;14.00;99.90;;;;;;5082503;28;20179;-72
2023/03/30 10:23:17;;;;;;;13.60;7.57;;;13.90;99.90;;;;;;5088206;28;20245;-73
2023/03/30 10:25:45;;;;;;;6.03;3.63;;;13.80;99.90;;;;;;5089022;28;20176;-71
2023/03/30 10:28:24;;;;;;;12.97;7.37;;;14.30;99.90;;;;;;5088908;28;20178;-75
2023/03/30 10:31:01;;;;;;;6.87;3.00;;;15.20;99.90;;;;;;5084372;28;20172;-74
2023/03/30 10:33:29;;;;;;;7.13;3.47;;;16.40;62.10;;;;;;5059162;28;20709;-77
2023/03/30 10:35:59;;;;;;;4.95;2.25;;;17.50;5.40;;;;;;5071758;28;20223;-74
2023/03/30 10:38:31;;;;;;;7.78;4.63;;;18.50;1.00;;;;;;5070662;28;20244;-76
2023/03/30 10:41:05;;;;;;;7.13;4.45;;;18.90;1.00;;;;;;5077989;28;20172;-74
2023/03/30 10:43:35;;;;;;;9.15;5.55;;;19.50;1.00;;;;;;5078080;28;20209;-73
2023/03/30 10:46:21;;;;;;;8.38;3.15;;;20.90;1.00;;;;;;5065994;28;20254;-79
2023/03/30 10:49:08;;;;;;;9.38;3.60;;;21.00;1.00;;;;;;5078680;28;20195;-77
2023/03/30 10:51:36;;;;;;;8.30;3.03;;;21.20;99.90;;;;;;5077554;28;20200;-76
2023/03/30 10:54:05;;;;;;;14.73;7.93;;;20.10;99.90;;;;;;5075326;28;20176;-77
2023/03/30 10:57:09;;;;;;;8.27;3.42;;;19.40;1.00;;;;;;5078797;28;20741;-75
2023/03/30 10:59:47;;;;;;;13.35;3.45;;;18.30;1.00;;;;;;5075804;28;20218;-76
2023/03/30 11:02:49;;;;;;;11.80;3.30;;;17.70;1.00;;;;;;5073805;28;20160;-76
2023/03/30 11:05:20;;;;;;;12.50;4.05;;;17.40;1.00;;;;;;5079842;28;20191;-76
2023/03/30 11:08:17;;;;;;;13.60;3.20;;;17.60;1.00;;;;;;5072544;28;20195;-77
2023/03/30 11:10:46;;;;;;;10.68;3.15;;;17.60;1.00;;;;;;4988617;28;20191;-75
2023/03/30 11:13:23;;;;;;;10.25;3.15;;;18.40;1.00;;;;;;4998280;28;20342;-74
2023/03/30 11:16:04;;;;;;;13.50;3.60;;;18.70;1.00;;;;;;5002531;28;20183;-75
2023/03/30 11:18:37;;;;;;;11.48;3.22;;;18.50;1.00;;;;;;4992426;28;20318;-76
2023/03/30 11:21:42;;;;;;;11.50;3.40;;;18.50;1.00;;;;;;4998769;28;20203;-76
2023/03/30 11:24:20;;;;;;;13.70;3.80;;;18.60;1.00;;;;;;4951827;28;20336;-77
2023/03/30 11:26:48;;;;;;;17.50;3.60;;;18.90;1.00;;;;;;5000708;28;20178;-79
2023/03/30 11:29:48;;;;;;;11.95;3.40;;;19.00;99.90;;;;;;4993385;28;20286;-77
2023/03/30 11:32:36;;;;;;;15.85;4.03;;;18.90;87.30;;;;;;4969800;28;20218;-75
2023/03/30 11:35:26;;;;;;;9.02;3.10;;;19.40;99.90;;;;;;4996781;28;20184;-76
2023/03/30 11:37:57;;;;;;;10.35;3.35;;;19.70;99.90;;;;;;5003406;28;20222;-74
2023/03/30 11:40:34;;;;;;;12.38;3.67;;;20.20;1.00;;;;;;4997418;28;20260;-71
2023/03/30 11:43:00;;;;;;;11.57;3.20;;;20.70;1.00;;;;;;4997794;28;20197;-75
2023/03/30 11:45:28;;;;;;;12.68;3.53;;;21.40;99.90;;;;;;4998666;28;20179;-76
2023/03/30 11:48:13;;;;;;;13.55;5.35;;;21.80;1.00;;;;;;5049799;28;20224;-74
2023/03/30 11:51:00;;;;;;;15.68;3.85;;;20.50;1.00;;;;;;5057990;28;20260;-73
2023/03/30 11:53:47;;;;;;;10.35;3.20;;;19.50;99.90;;;;;;5057365;28;20188;-72
2023/03/30 11:56:38;;;;;;;10.82;3.17;;;18.80;1.00;;;;;;5059179;28;20212;-75
2023/03/30 11:59:46;;;;;;;9.88;3.17;;;18.50;1.00;;;;;;5061515;28;20172;-74
2023/03/30 12:02:17;;;;;;;10.90;2.88;;;18.70;1.00;;;;;;5014601;28;20189;-75
2023/03/30 12:04:51;;;;;;;14.23;4.18;;;19.20;99.90;;;;;;5057152;28;20230;-74
2023/03/30 12:07:37;;;;;;;15.63;4.35;;;19.10;1.00;;;;;;5060484;28;20519;-74
2023/03/30 12:10:07;;;;;;;15.70;3.92;;;19.10;1.00;;;;;;5052397;28;20185;-73
2023/03/30 12:12:37;;;;;;;13.85;3.28;;;19.00;1.00;;;;;;5057123;28;20166;-72
2023/03/30 12:15:45;;;;;;;13.40;3.50;;;18.90;3.90;;;;;;5051243;28;20173;-74
2023/03/30 12:18:35;;;;;;;8.38;3.10;;;18.80;1.00;;;;;;4995602;28;20222;-71
2023/03/30 12:21:27;;;;;;;10.40;3.35;;;19.20;1.00;;;;;;5000645;28;20639;-71
2023/03/30 12:24:05;;;;;;;8.25;3.00;;;19.10;99.90;;;;;;4993344;28;20270;-71
2023/03/30 12:26:33;;;;;;;10.50;3.08;;;18.70;1.00;;;;;;4997847;28;20187;-70
2023/03/30 12:29:11;;;;;;;12.57;3.17;;;18.40;1.00;;;;;;5002741;28;20168;-72
2023/03/30 12:31:57;;;;;;;11.70;2.90;;;18.40;1.00;;;;;;5005390;28;20684;-72
2023/03/30 12:34:26;;;;;;;8.20;3.25;;;18.30;1.00;;;;;;5000416;28;20317;-73
2023/03/30 12:36:55;;;;;;;14.10;3.17;;;18.50;1.00;;;;;;5003706;28;20265;-75
2023/03/30 12:39:47;;;;;;;11.30;3.20;;;18.30;99.90;;;;;;4986360;28;20179;-76
2023/03/30 12:42:25;;;;;;;9.23;3.08;;;18.50;99.90;;;;;;4996497;28;20179;-73
2023/03/30 12:45:20;;;;;;;10.27;2.85;;;18.40;1.00;;;;;;4991639;28;20186;-76
2023/03/30 12:47:58;;;;;;;13.80;3.17;;;18.50;1.00;;;;;;4981413;28;20265;-76
2023/03/30 12:50:42;;;;;;;8.45;3.03;;;18.50;1.00;;;;;;5005803;28;20170;-73
2023/03/30 12:53:53;;;;;;;11.68;2.85;;;18.60;99.90;;;;;;5062048;28;20220;-73
2023/03/30 12:56:30;;;;;;;9.77;2.20;;;18.20;1.00;;;;;;4998741;28;20228;-74
2023/03/30 12:59:01;;;;;;;10.77;2.88;;;18.10;40.50;;;;;;5046447;28;20169;-74
2023/03/30 13:01:33;;;;;;;8.77;2.78;;;18.10;1.00;;;;;;5062226;28;20180;-74
2023/03/30 13:04:04;;;;;;;15.23;2.90;;;17.90;1.00;;;;;;5061574;28;20180;-75
2023/03/30 13:06:32;;;;;;;14.38;3.42;;;17.60;99.90;;;;;;5062831;28;20180;-74
2023/03/30 13:09:06;;;;;;;10.23;2.97;;;17.50;1.00;;;;;;5060825;28;20177;-75
2023/03/30 13:11:44;;;;;;;11.30;3.05;;;17.50;1.00;;;;;;5065853;28;20168;-73
2023/03/30 13:14:32;;;;;;;12.50;3.17;;;17.30;1.00;;;;;;5061645;28;20202;-73